createdAt,value
2022-09-16T00:00:24.620Z,98070.36
2022-09-16T00:03:13.722Z,98069.03
2022-09-16T00:05:47.317Z,98072.23
2022-09-16T00:08:16.197Z,98075.29
2022-09-16T00:10:45.024Z,98074.58
2022-09-16T00:13:15.532Z,98078.12
2022-09-16T00:15:45.786Z,98081.10
2022-09-16T00:18:14.966Z,98078.52
2022-09-16T00:20:45.491Z,98081.96
2022-09-16T00:23:13.758Z,98077.50
2022-09-16T00:25:45.204Z,98069.98
2022-09-16T00:28:13.515Z,98077.34
2022-09-16T00:30:41.660Z,98076.86
2022-09-16T00:33:12.554Z,98076.48
2022-09-16T00:35:40.794Z,98077.50
2022-09-16T00:38:10.022Z,98079.70
2022-09-16T00:40:48.429Z,98078.52
2022-09-16T00:43:20.235Z,98079.16
2022-09-16T00:46:11.242Z,98080.57
2022-09-16T00:48:44.834Z,98075.86
2022-09-16T00:51:15.262Z,98069.20
2022-09-16T00:53:52.201Z,98067.32
2022-09-16T00:56:23.807Z,98062.92
2022-09-16T00:59:11.081Z,98065.83
2022-09-16T01:01:40.239Z,98067.63
2022-09-16T01:04:16.499Z,98065.52
2022-09-16T01:06:50.034Z,98063.79
2022-09-16T01:09:21.127Z,98061.05
2022-09-16T01:11:52.311Z,98060.12
2022-09-16T01:14:41.318Z,98060.90
2022-09-16T01:17:30.805Z,98064.35
2022-09-16T01:20:00.391Z,98072.83
2022-09-16T01:22:52.093Z,98075.09
2022-09-16T01:25:38.668Z,98082.05
2022-09-16T01:28:46.194Z,98080.17
2022-09-16T01:31:58.153Z,98082.99
2022-09-16T01:35:11.081Z,98082.45
2022-09-16T01:38:04.201Z,98082.13
2022-09-16T01:41:00.887Z,98084.32
2022-09-16T01:43:58.087Z,98085.03
2022-09-16T01:46:51.540Z,98086.52
2022-09-16T01:49:51.849Z,98084.71
2022-09-16T01:52:35.321Z,98088.08
2022-09-16T01:55:07.952Z,98086.27
2022-09-16T01:58:11.037Z,98086.11
2022-09-16T02:00:43.505Z,98091.45
2022-09-16T02:03:15.972Z,98083.70
2022-09-16T02:06:14.063Z,98086.98
2022-09-16T02:09:11.348Z,98083.85
2022-09-16T02:11:41.851Z,98072.49
2022-09-16T02:14:16.280Z,98068.02
2022-09-16T02:16:54.679Z,98066.77
2022-09-16T02:19:31.992Z,98069.91
2022-09-16T02:22:03.311Z,98069.67
2022-09-16T02:24:34.675Z,98078.37
2022-09-16T02:27:08.574Z,98074.29
2022-09-16T02:29:41.785Z,98074.75
2022-09-16T02:32:12.300Z,98071.79
2022-09-16T02:34:44.966Z,98077.65
2022-09-16T02:37:31.042Z,98084.55
2022-09-16T02:40:05.274Z,98087.20
2022-09-16T02:42:34.488Z,98085.88
2022-09-16T02:45:04.052Z,98089.02
2022-09-16T02:47:45.376Z,98093.08
2022-09-16T02:50:48.374Z,98093.16
2022-09-16T02:53:20.164Z,98100.98
2022-09-16T02:55:59.905Z,98106.30
2022-09-16T02:58:29.812Z,98109.11
2022-09-16T03:00:58.841Z,98107.54
2022-09-16T03:03:27.070Z,98109.27
2022-09-16T03:06:19.809Z,98113.55
2022-09-16T03:08:50.687Z,98109.96
2022-09-16T03:11:30.455Z,98108.70
2022-09-16T03:14:12.008Z,98106.82
2022-09-16T03:17:18.633Z,98110.80
2022-09-16T03:20:02.315Z,98113.09
2022-09-16T03:23:01.291Z,98109.41
2022-09-16T03:25:57.653Z,98112.15
2022-09-16T03:28:55.836Z,98110.50
2022-09-16T03:31:39.312Z,98114.18
2022-09-16T03:34:45.546Z,98109.73
2022-09-16T03:37:18.660Z,98107.70
2022-09-16T03:39:54.764Z,98104.57
2022-09-16T03:42:25.971Z,98099.01
2022-09-16T03:44:54.515Z,98096.27
2022-09-16T03:47:22.337Z,98094.62
2022-09-16T03:49:51.693Z,98089.84
2022-09-16T03:52:20.001Z,98092.66
2022-09-16T03:54:48.145Z,98087.70
2022-09-16T03:57:18.989Z,98089.42
2022-09-16T03:59:47.257Z,98089.17
2022-09-16T04:02:17.809Z,98089.95
2022-09-16T04:04:46.330Z,98088.21
2022-09-16T04:07:14.677Z,98086.50
2022-09-16T04:09:43.226Z,98090.09
2022-09-16T04:12:11.433Z,98093.36
2022-09-16T04:14:39.622Z,98094.36
2022-09-16T04:17:10.409Z,98092.08
2022-09-16T04:19:38.674Z,98097.88
2022-09-16T04:22:06.830Z,98094.13
2022-09-16T04:24:37.637Z,98094.58
2022-09-16T04:27:06.966Z,98095.90
2022-09-16T04:29:34.882Z,98097.21
2022-09-16T04:32:03.106Z,98099.73
2022-09-16T04:34:32.660Z,98102.85
2022-09-16T04:37:00.831Z,98101.61
2022-09-16T04:39:30.139Z,98109.20
2022-09-16T04:42:01.224Z,98102.09
2022-09-16T04:44:30.478Z,98099.83
2022-09-16T04:46:58.681Z,98105.64
2022-09-16T04:49:26.830Z,98100.94
2022-09-16T04:51:57.714Z,98102.44
2022-09-16T04:54:25.548Z,98096.96
2022-09-16T04:56:57.832Z,98099.25
2022-09-16T04:59:26.076Z,98102.55
2022-09-16T05:01:54.253Z,98106.70
2022-09-16T05:04:25.039Z,98103.50
2022-09-16T05:06:53.283Z,98103.27
2022-09-16T05:09:24.487Z,98097.41
2022-09-16T05:11:52.930Z,98095.46
2022-09-16T05:14:24.374Z,98100.33
2022-09-16T05:16:52.216Z,98092.74
2022-09-16T05:19:20.375Z,98096.34
2022-09-16T05:21:48.504Z,98103.94
2022-09-16T05:24:16.678Z,98103.14
2022-09-16T05:26:44.578Z,98105.66
2022-09-16T05:29:16.339Z,98102.84
2022-09-16T05:31:48.665Z,98093.67
2022-09-16T05:34:28.733Z,98092.49
2022-09-16T05:36:57.617Z,98092.42
2022-09-16T05:39:26.566Z,98087.50
2022-09-16T05:42:00.681Z,98092.36
2022-09-16T05:44:32.458Z,98094.42
2022-09-16T05:47:00.377Z,98095.60
2022-09-16T05:49:31.264Z,98098.35
2022-09-16T05:51:59.501Z,98098.96
2022-09-16T05:54:28.118Z,98098.34
2022-09-16T05:57:01.259Z,98100.29
2022-09-16T05:59:32.806Z,98102.88
2022-09-16T06:02:01.216Z,98102.73
2022-09-16T06:04:30.542Z,98097.74
2022-09-16T06:07:02.234Z,98101.21
2022-09-16T06:09:30.503Z,98103.41
2022-09-16T06:12:02.201Z,98104.81
2022-09-16T06:14:30.504Z,98107.71
2022-09-16T06:16:58.420Z,98110.30
2022-09-16T06:19:29.557Z,98113.44
2022-09-16T06:21:57.811Z,98118.69
2022-09-16T06:24:25.625Z,98109.91
2022-09-16T06:26:54.730Z,98104.73
2022-09-16T06:29:23.029Z,98101.20
2022-09-16T06:31:51.221Z,98106.14
2022-09-16T06:34:20.415Z,98099.95
2022-09-16T06:36:48.581Z,98101.67
2022-09-16T06:39:20.497Z,98100.33
2022-09-16T06:41:53.701Z,98103.55
2022-09-16T06:44:24.208Z,98100.71
2022-09-16T06:46:52.348Z,98096.01
2022-09-16T06:49:20.739Z,98096.00
2022-09-16T06:51:48.562Z,98104.23
2022-09-16T06:54:17.977Z,98108.86
2022-09-16T06:56:46.566Z,98109.55
2022-09-16T06:59:17.270Z,98111.21
2022-09-16T07:01:45.411Z,98116.23
2022-09-16T07:04:16.364Z,98117.81
2022-09-16T07:09:34.629Z,98106.83
2022-09-16T07:12:03.814Z,98115.52
2022-09-16T07:14:35.234Z,98108.39
2022-09-16T07:17:03.613Z,98112.46
2022-09-16T07:19:35.383Z,98108.93
2022-09-16T07:22:03.761Z,98106.34
2022-09-16T07:24:32.045Z,98108.55
2022-09-16T07:27:00.257Z,98101.41
2022-09-16T07:29:28.784Z,98107.30
2022-09-16T07:31:57.026Z,98103.29
2022-09-16T07:34:25.207Z,98104.23
2022-09-16T07:36:53.129Z,98105.32
2022-09-16T07:39:21.422Z,98105.71
2022-09-16T07:41:49.882Z,98110.34
2022-09-16T07:44:21.204Z,98103.83
2022-09-16T07:46:51.352Z,98108.39
2022-09-16T07:49:20.576Z,98124.22
2022-09-16T07:51:52.069Z,98123.88
2022-09-16T07:54:20.340Z,98122.05
2022-09-16T07:56:49.251Z,98120.33
2022-09-16T07:59:19.639Z,98127.55
2022-09-16T08:01:49.933Z,98126.43
2022-09-16T08:04:20.426Z,98125.16
2022-09-16T08:06:49.875Z,98128.45
2022-09-16T08:12:08.146Z,98129.56
2022-09-16T08:14:36.889Z,98129.63
2022-09-16T08:17:05.249Z,98124.73
2022-09-16T08:19:33.220Z,98130.75
2022-09-16T08:22:01.727Z,98130.81
2022-09-16T08:24:30.149Z,98133.70
2022-09-16T08:26:58.379Z,98129.85
2022-09-16T08:29:27.241Z,98124.44
2022-09-16T08:31:57.103Z,98123.39
2022-09-16T08:34:25.448Z,98129.85
2022-09-16T08:36:53.631Z,98113.20
2022-09-16T08:39:24.530Z,98117.74
2022-09-16T08:42:35.556Z,98115.28
2022-09-16T08:45:35.842Z,98122.48
2022-09-16T08:48:17.423Z,98118.80
2022-09-16T08:50:47.463Z,98128.19
2022-09-16T08:54:00.136Z,98126.02
2022-09-16T08:56:34.569Z,98125.59
2022-09-16T08:59:13.567Z,98132.05
2022-09-16T09:02:03.910Z,98137.66
2022-09-16T09:04:35.081Z,98136.36
2022-09-16T09:07:52.005Z,98134.33
2022-09-16T09:10:39.950Z,98135.88
2022-09-16T09:13:43.983Z,98134.65
2022-09-16T09:16:53.182Z,98128.45
2022-09-16T09:20:01.323Z,98123.76
2022-09-16T09:23:43.351Z,98118.20
2022-09-16T09:26:36.704Z,98125.10
2022-09-16T09:29:43.943Z,98120.30
2022-09-16T09:32:48.614Z,98120.74
2022-09-16T09:35:25.203Z,98127.64
2022-09-16T09:38:07.431Z,98122.66
2022-09-16T09:40:48.757Z,98123.04
2022-09-16T09:43:28.712Z,98120.35
2022-09-16T09:46:03.513Z,98119.89
2022-09-16T09:48:43.177Z,98114.52
2022-09-16T09:51:38.103Z,98119.19
2022-09-16T09:54:30.059Z,98115.94
2022-09-16T09:57:02.902Z,98125.68
2022-09-16T09:59:48.809Z,98125.47
2022-09-16T10:02:19.426Z,98125.81
2022-09-16T10:04:48.585Z,98126.40
2022-09-16T10:07:21.142Z,98123.61
2022-09-16T10:09:59.258Z,98122.50
2022-09-16T10:12:36.417Z,98121.17
2022-09-16T10:15:06.534Z,98122.58
2022-09-16T10:17:34.552Z,98120.48
2022-09-16T10:20:29.301Z,98118.52
2022-09-16T10:23:13.654Z,98114.59
2022-09-16T10:25:44.399Z,98110.92
2022-09-16T10:28:26.082Z,98106.14
2022-09-16T10:30:58.877Z,98099.35
2022-09-16T10:33:44.936Z,98098.28
2022-09-16T10:36:20.860Z,98094.84
2022-09-16T10:39:04.691Z,98097.92
2022-09-16T10:41:48.103Z,98099.18
2022-09-16T10:44:23.832Z,98103.97
2022-09-16T10:47:07.246Z,98099.10
2022-09-16T10:49:51.577Z,98096.27
2022-09-16T10:52:23.902Z,98094.00
2022-09-16T10:54:52.621Z,98089.96
2022-09-16T10:57:29.159Z,98084.55
2022-09-16T11:00:16.308Z,98082.16
2022-09-16T11:03:23.748Z,98093.16
2022-09-16T11:06:29.857Z,98089.88
2022-09-16T11:09:43.563Z,98099.82
2022-09-16T11:12:30.296Z,98098.89
2022-09-16T11:15:29.131Z,98091.85
2022-09-16T11:18:38.231Z,98091.58
2022-09-16T11:21:21.094Z,98084.04
2022-09-16T11:24:08.543Z,98075.59
2022-09-16T11:27:25.590Z,98077.36
2022-09-16T11:30:33.607Z,98073.77
2022-09-16T11:33:11.931Z,98071.41
2022-09-16T11:36:28.320Z,98070.59
2022-09-16T11:39:25.989Z,98070.99
2022-09-16T11:42:21.328Z,98067.06
2022-09-16T11:45:37.714Z,98074.17
2022-09-16T11:48:38.831Z,98074.80
2022-09-16T11:51:31.116Z,98069.73
2022-09-16T11:54:46.425Z,98068.77
2022-09-16T11:57:19.152Z,98070.81
2022-09-16T12:00:01.739Z,98074.27
2022-09-16T12:03:20.142Z,98069.46
2022-09-16T12:05:54.844Z,98066.89
2022-09-16T12:08:30.457Z,98063.98
2022-09-16T12:11:36.656Z,98052.10
2022-09-16T12:14:19.581Z,98066.06
2022-09-16T12:16:51.013Z,98080.68
2022-09-16T12:19:26.073Z,98082.65
2022-09-16T12:22:05.169Z,98070.78
2022-09-16T12:25:03.798Z,98062.75
2022-09-16T12:27:55.156Z,98060.74
2022-09-16T12:30:33.888Z,98054.10
2022-09-16T12:33:26.421Z,98053.92
2022-09-16T12:36:19.099Z,98049.83
2022-09-16T12:38:52.747Z,98039.91
2022-09-16T12:42:02.223Z,98036.75
2022-09-16T12:44:57.337Z,98030.39
2022-09-16T12:48:10.329Z,98027.77
2022-09-16T12:51:11.108Z,98026.23
2022-09-16T12:54:21.525Z,98024.02
2022-09-16T12:57:12.699Z,98035.84
2022-09-16T13:00:11.931Z,98030.71
2022-09-16T13:02:52.984Z,98026.95
2022-09-16T13:05:35.159Z,98022.45
2022-09-16T13:08:09.104Z,98032.76
2022-09-16T13:11:16.496Z,98020.19
2022-09-16T13:13:52.698Z,98021.22
2022-09-16T13:16:37.245Z,98021.86
2022-09-16T13:19:27.524Z,98009.48
2022-09-16T13:21:59.223Z,98006.14
2022-09-16T13:24:38.201Z,98001.58
2022-09-16T13:27:27.380Z,97995.15
2022-09-16T13:30:28.166Z,97990.64
2022-09-16T13:33:01.919Z,97990.21
2022-09-16T13:35:45.305Z,97991.15
2022-09-16T13:38:24.487Z,97995.30
2022-09-16T13:41:00.411Z,97994.06
2022-09-16T13:43:37.423Z,97988.23
2022-09-16T13:46:26.178Z,97989.19
2022-09-16T13:49:11.240Z,97993.48
2022-09-16T13:51:46.800Z,97984.52
2022-09-16T13:55:06.166Z,97987.45
2022-09-16T13:58:01.120Z,97987.18
2022-09-16T14:00:48.179Z,97987.09
2022-09-16T14:03:43.510Z,97995.35
2022-09-16T14:06:50.088Z,97993.08
2022-09-16T14:09:58.986Z,97997.25
2022-09-16T14:12:39.654Z,97993.30
2022-09-16T14:15:49.575Z,97998.23
2022-09-16T14:18:25.778Z,97992.55
2022-09-16T14:21:17.838Z,97991.27
2022-09-16T14:23:45.652Z,97989.11
2022-09-16T14:26:22.611Z,97995.70
2022-09-16T14:29:02.574Z,98006.56
2022-09-16T14:31:34.286Z,97996.56
2022-09-16T14:34:07.696Z,97998.86
2022-09-16T14:37:02.658Z,97995.98
2022-09-16T14:39:33.958Z,97996.58
2022-09-16T14:42:07.391Z,97987.15
2022-09-16T14:44:40.827Z,98007.73
2022-09-16T14:47:53.415Z,97991.36
2022-09-16T14:50:25.626Z,97988.17
2022-09-16T14:53:01.546Z,97999.22
2022-09-16T14:55:40.373Z,97986.27
2022-09-16T14:58:11.933Z,97977.06
2022-09-16T15:00:55.050Z,97982.34
2022-09-16T15:03:27.197Z,97962.69
2022-09-16T15:05:59.945Z,97961.62
2022-09-16T15:08:47.736Z,97961.75
2022-09-16T15:11:43.554Z,97957.95
2022-09-16T15:14:09.989Z,97958.45
2022-09-16T15:16:48.715Z,97967.85
2022-09-16T15:19:39.751Z,97969.58
2022-09-16T15:22:13.632Z,97958.77
2022-09-16T15:24:42.462Z,97952.98
2022-09-16T15:27:10.876Z,97948.39
2022-09-16T15:29:49.558Z,97942.72
2022-09-16T15:32:24.261Z,97944.82
2022-09-16T15:35:29.706Z,97954.20
2022-09-16T15:38:12.945Z,97947.60
2022-09-16T15:40:41.404Z,97944.08
2022-09-16T15:43:28.052Z,97948.91
2022-09-16T15:46:09.302Z,97943.91
2022-09-16T15:48:45.936Z,97941.91
2022-09-16T15:51:47.993Z,97940.22
2022-09-16T15:54:31.781Z,97943.83
2022-09-16T15:57:04.962Z,97933.46
2022-09-16T15:59:54.577Z,97931.48
2022-09-16T16:02:32.939Z,97936.40
2022-09-16T16:05:18.057Z,97943.30
2022-09-16T16:07:49.999Z,97933.23
2022-09-16T16:10:24.039Z,97933.84
2022-09-16T16:12:54.779Z,97937.48
2022-09-16T16:15:29.551Z,97938.92
2022-09-16T16:18:05.161Z,97943.12
2022-09-16T16:20:36.734Z,97945.28
2022-09-16T16:23:10.116Z,97946.44
2022-09-16T16:25:41.173Z,97953.43
2022-09-16T16:28:09.123Z,97956.23
2022-09-16T16:30:36.952Z,97967.02
2022-09-16T16:33:07.853Z,97974.17
2022-09-16T16:35:38.479Z,97969.57
2022-09-16T16:38:09.151Z,97972.96
2022-09-16T16:41:01.885Z,97969.02
2022-09-16T16:43:30.164Z,97974.89
2022-09-16T16:45:58.592Z,97976.44
2022-09-16T16:48:28.608Z,97978.30
2022-09-16T16:51:05.221Z,97980.23
2022-09-16T16:53:33.532Z,97979.49
2022-09-16T16:56:14.819Z,97980.77
2022-09-16T16:59:09.299Z,97974.47
2022-09-16T17:01:38.355Z,97975.66
2022-09-16T17:04:10.300Z,97979.96
2022-09-16T17:06:40.399Z,97978.18
2022-09-16T17:09:14.963Z,97976.02
2022-09-16T17:11:58.120Z,97974.08
2022-09-16T17:14:29.536Z,97978.66
2022-09-16T17:16:57.798Z,97982.52
2022-09-16T17:19:27.464Z,97983.56
2022-09-16T17:21:56.002Z,97985.02
2022-09-16T17:24:24.259Z,97981.90
2022-09-16T17:26:52.478Z,97980.14
2022-09-16T17:29:20.356Z,97986.52
2022-09-16T17:31:48.572Z,97985.06
2022-09-16T17:34:19.508Z,97987.24
2022-09-16T17:36:47.827Z,97987.18
2022-09-16T17:39:22.012Z,98000.30
2022-09-16T17:41:54.841Z,97999.83
2022-09-16T17:44:23.254Z,98003.59
2022-09-16T17:46:51.290Z,98003.32
2022-09-16T17:49:23.895Z,98009.55
2022-09-16T17:51:53.725Z,98006.29
2022-09-16T17:54:22.909Z,98009.70
2022-09-16T17:56:52.206Z,98010.67
2022-09-16T17:59:20.269Z,98013.23
2022-09-16T18:01:49.325Z,98019.17
2022-09-16T18:04:17.409Z,98016.42
2022-09-16T18:06:47.017Z,98015.69
2022-09-16T18:09:18.533Z,98013.14
2022-09-16T18:11:46.952Z,98015.36
2022-09-16T18:14:17.260Z,98014.98
2022-09-16T18:16:51.992Z,98012.25
2022-09-16T18:19:20.302Z,98014.66
2022-09-16T18:21:48.947Z,98014.83
2022-09-16T18:24:21.066Z,98013.88
2022-09-16T18:26:51.605Z,98019.13
2022-09-16T18:29:20.022Z,98017.71
2022-09-16T18:31:50.026Z,98019.27
2022-09-16T18:34:18.628Z,98018.16
2022-09-16T18:36:46.830Z,98022.70
2022-09-16T18:39:18.446Z,98031.62
2022-09-16T18:41:46.720Z,98027.30
2022-09-16T18:44:21.475Z,98027.38
2022-09-16T18:46:50.199Z,98026.19
2022-09-16T18:49:20.675Z,98031.66
2022-09-16T18:51:52.478Z,98028.91
2022-09-16T18:54:31.081Z,98026.86
2022-09-16T18:57:02.549Z,98027.88
2022-09-16T18:59:34.555Z,98032.73
2022-09-16T19:02:03.942Z,98031.31
2022-09-16T19:04:33.715Z,98033.02
2022-09-16T19:07:08.329Z,98032.21
2022-09-16T19:09:40.809Z,98036.79
2022-09-16T19:12:11.233Z,98041.57
2022-09-16T19:14:41.183Z,98036.55
2022-09-16T19:17:10.434Z,98032.86
2022-09-16T19:19:39.477Z,98030.11
2022-09-16T19:22:08.188Z,98030.58
2022-09-16T19:24:37.594Z,98031.18
2022-09-16T19:27:05.711Z,98028.52
2022-09-16T19:29:33.943Z,98030.38
2022-09-16T19:32:05.272Z,98028.40
2022-09-16T19:34:33.555Z,98030.17
2022-09-16T19:37:01.706Z,98029.74
2022-09-16T19:39:29.754Z,98026.73
2022-09-16T19:42:03.226Z,98024.05
2022-09-16T19:44:31.157Z,98021.00
2022-09-16T19:46:59.298Z,98028.52
2022-09-16T19:49:27.512Z,98027.02
2022-09-16T19:51:55.735Z,98028.25
2022-09-16T19:54:24.506Z,98028.00
2022-09-16T19:56:52.764Z,98030.01
2022-09-16T19:59:21.267Z,98029.05
2022-09-16T20:01:50.176Z,98033.58
2022-09-16T20:04:21.732Z,98032.77
2022-09-16T20:06:53.038Z,98033.92
2022-09-16T20:09:21.111Z,98033.36
2022-09-16T20:11:49.614Z,98033.36
2022-09-16T20:14:20.115Z,98035.65
2022-09-16T20:16:50.286Z,98029.34
2022-09-16T20:19:20.628Z,98028.86
2022-09-16T20:21:49.194Z,98028.55
2022-09-16T20:24:37.658Z,98023.70
2022-09-16T20:27:09.429Z,98022.52
2022-09-16T20:29:37.237Z,98020.76
2022-09-16T20:32:05.924Z,98026.21
2022-09-16T20:34:34.194Z,98021.13
2022-09-16T20:37:05.155Z,98021.27
2022-09-16T20:39:33.480Z,98024.86
2022-09-16T20:42:03.050Z,98027.28
2022-09-16T20:44:31.258Z,98023.30
2022-09-16T20:46:59.100Z,98027.44
2022-09-16T20:49:26.992Z,98030.91
2022-09-16T20:51:55.209Z,98030.86
2022-09-16T20:54:26.078Z,98028.77
2022-09-16T20:56:54.187Z,98032.74
2022-09-16T20:59:22.725Z,98029.68
2022-09-16T21:01:50.847Z,98034.36
2022-09-16T21:04:20.477Z,98032.55
2022-09-16T21:06:48.784Z,98032.86
2022-09-16T21:09:19.245Z,98032.29
2022-09-16T21:11:48.216Z,98030.56
2022-09-16T21:14:17.448Z,98031.73
2022-09-16T21:16:49.659Z,98026.63
2022-09-16T21:19:17.991Z,98025.13
2022-09-16T21:21:48.672Z,98027.52
2022-09-16T21:24:20.282Z,98030.77
2022-09-16T21:26:48.626Z,98030.69
2022-09-16T21:29:21.513Z,98028.44
2022-09-16T21:31:50.633Z,98027.83
2022-09-16T21:34:21.286Z,98028.31
2022-09-16T21:36:50.774Z,98026.77
2022-09-16T21:39:20.843Z,98029.67
2022-09-16T21:41:48.965Z,98030.99
2022-09-16T21:44:17.761Z,98033.55
2022-09-16T21:46:46.459Z,98028.85
2022-09-16T21:49:25.605Z,98031.64
2022-09-16T21:51:57.728Z,98028.95
2022-09-16T21:54:26.817Z,98025.77
2022-09-16T21:56:54.684Z,98024.26
2022-09-16T21:59:23.701Z,98020.73
2022-09-16T22:01:52.622Z,98021.09
2022-09-16T22:04:23.928Z,98023.47
2022-09-16T22:06:55.270Z,98019.77
2022-09-16T22:09:24.470Z,98025.64
2022-09-16T22:11:52.741Z,98022.73
2022-09-16T22:14:20.528Z,98021.75
2022-09-16T22:16:51.463Z,98021.79
2022-09-16T22:19:19.569Z,98024.42
2022-09-16T22:21:50.043Z,98023.44
2022-09-16T22:24:21.842Z,98022.77
2022-09-16T22:26:52.240Z,98024.52
2022-09-16T22:29:20.447Z,98020.95
2022-09-16T22:31:52.334Z,98023.70
2022-09-16T22:34:20.827Z,98022.46
2022-09-16T22:36:49.383Z,98025.34
2022-09-16T22:39:19.857Z,98025.33
2022-09-16T22:41:48.051Z,98028.34
2022-09-16T22:44:16.334Z,98027.45
2022-09-16T22:46:46.494Z,98030.79
2022-09-16T22:49:15.969Z,98030.91
2022-09-16T22:51:44.483Z,98033.32
2022-09-16T22:54:14.135Z,98031.88
2022-09-16T22:56:45.099Z,98028.32
2022-09-16T22:59:18.158Z,98025.09
2022-09-16T23:01:49.661Z,98017.64
2022-09-16T23:04:18.318Z,98014.80
2022-09-16T23:06:46.895Z,98013.82
2022-09-16T23:09:17.835Z,98009.09
2022-09-16T23:11:46.097Z,98006.37
2022-09-16T23:14:24.874Z,98006.52
2022-09-16T23:16:54.424Z,98004.94
2022-09-16T23:19:25.407Z,98004.92
2022-09-16T23:21:54.253Z,98002.33
2022-09-16T23:24:23.288Z,98002.45
2022-09-16T23:26:51.647Z,97995.08
2022-09-16T23:29:19.891Z,97997.52
2022-09-16T23:31:48.214Z,97992.91
2022-09-16T23:34:19.275Z,97990.23
2022-09-16T23:36:48.344Z,97986.52
2022-09-16T23:39:18.140Z,97985.55
2022-09-16T23:41:46.996Z,97984.66
2022-09-16T23:44:16.235Z,97986.04
2022-09-16T23:46:44.577Z,97981.25
2022-09-16T23:49:13.994Z,97980.67
2022-09-16T23:51:42.201Z,97975.87
2022-09-16T23:54:14.251Z,97972.18
2022-09-16T23:56:42.836Z,97972.86
2022-09-16T23:59:10.973Z,97974.80
